Time;durP1;ratioP1;P1;durP2;ratioP2;P2;SDS_P1;SDS_P2;PMS_P1;PMS_P2;Temp;Humidity;BMP_temperature;BMP_pressure;BME280_temperature;BME280_humidity;BME280_pressure;Samples;Min_cycle;Max_cycle;Signal;HPM_P1;HPM_P2
2022/12/16 00:01:23;;;;;;;25.97;12.30;;;-3.20;99.90;;;;;;10434147;28;20232;-70
2022/12/16 00:06:29;;;;;;;25.70;12.00;;;-3.20;99.90;;;;;;10425889;28;20228;-70
2022/12/16 00:11:31;;;;;;;24.77;11.83;;;-3.20;99.90;;;;;;10425435;28;20302;-70
2022/12/16 00:16:31;;;;;;;22.00;12.43;;;-3.30;99.90;;;;;;10433747;28;20267;-70
2022/12/16 00:21:32;;;;;;;23.60;13.00;;;-3.30;99.90;;;;;;10435467;28;20267;-70
2022/12/16 00:26:32;;;;;;;21.77;12.23;;;-3.30;99.90;;;;;;10436583;28;20216;-70
2022/12/16 00:31:33;;;;;;;22.50;11.63;;;-3.30;99.90;;;;;;10431236;28;20221;-70
2022/12/16 00:36:34;;;;;;;23.07;12.27;;;-3.30;99.90;;;;;;10430178;28;20305;-70
2022/12/16 00:41:34;;;;;;;22.53;12.57;;;-3.30;99.90;;;;;;10436017;28;20269;-70
2022/12/16 00:46:35;;;;;;;21.33;11.87;;;-3.30;99.90;;;;;;10431986;28;20643;-70
2022/12/16 00:51:35;;;;;;;19.30;11.50;;;-3.30;99.90;;;;;;10434338;28;20220;-70
2022/12/16 00:56:36;;;;;;;20.90;11.67;;;-3.30;99.90;;;;;;10431174;28;20228;-70
2022/12/16 01:01:36;;;;;;;20.93;11.70;;;-3.40;99.90;;;;;;10435280;28;20223;-71
2022/12/16 01:06:37;;;;;;;19.47;10.60;;;-3.30;99.90;;;;;;10430847;28;20706;-70
2022/12/16 01:11:38;;;;;;;21.93;11.70;;;-3.30;99.90;;;;;;10433768;28;20219;-70
2022/12/16 01:16:41;;;;;;;18.90;11.20;;;-3.30;99.90;;;;;;10431633;28;20707;-70
2022/12/16 01:21:42;;;;;;;17.53;10.37;;;-3.30;99.90;;;;;;10436691;28;20212;-70
2022/12/16 01:26:42;;;;;;;20.73;10.93;;;-3.30;99.90;;;;;;10435410;28;20224;-70
2022/12/16 01:31:43;;;;;;;19.40;10.80;;;-3.40;99.90;;;;;;10429041;28;20247;-70
2022/12/16 01:36:43;;;;;;;19.50;10.60;;;-3.40;99.90;;;;;;10433849;28;20647;-69
2022/12/16 01:41:44;;;;;;;19.83;10.77;;;-3.30;99.90;;;;;;10428817;28;20296;-69
2022/12/16 01:46:49;;;;;;;21.33;10.93;;;-3.30;99.90;;;;;;10441645;28;20223;-70
2022/12/16 01:51:59;;;;;;;18.30;10.57;;;-3.30;99.90;;;;;;10435078;28;20225;-69
2022/12/16 01:57:11;;;;;;;19.97;10.60;;;-3.30;99.90;;;;;;10428336;28;20323;-70
2022/12/16 02:02:12;;;;;;;20.13;10.87;;;-3.30;99.90;;;;;;10430756;28;20282;-69
2022/12/16 02:07:13;;;;;;;17.93;9.93;;;-3.40;99.90;;;;;;10425561;28;20216;-70
2022/12/16 02:12:38;;;;;;;16.77;10.03;;;-3.40;99.90;;;;;;10428337;28;20220;-69
2022/12/16 02:18:02;;;;;;;19.60;10.20;;;-3.40;99.90;;;;;;10425232;28;20247;-69
2022/12/16 02:23:35;;;;;;;19.30;10.97;;;-3.50;99.90;;;;;;10426437;28;20252;-69
2022/12/16 02:29:12;;;;;;;19.40;11.03;;;-3.50;99.90;;;;;;10435693;28;20290;-69
2022/12/16 02:34:21;;;;;;;17.60;9.57;;;-3.60;99.90;;;;;;10419101;28;20228;-70
2022/12/16 02:39:27;;;;;;;23.27;10.47;;;-3.60;99.90;;;;;;10432419;28;20219;-69
2022/12/16 02:44:50;;;;;;;18.70;10.27;;;-3.70;99.90;;;;;;10424920;28;20279;-69
2022/12/16 02:49:52;;;;;;;19.27;9.67;;;-3.70;99.90;;;;;;10433161;28;20215;-69
2022/12/16 02:54:57;;;;;;;20.77;11.07;;;-3.70;99.90;;;;;;10424979;28;20308;-71
2022/12/16 03:00:05;;;;;;;20.93;10.70;;;-3.70;99.90;;;;;;10431979;28;20212;-69
2022/12/16 03:05:14;;;;;;;18.97;10.07;;;-3.80;99.90;;;;;;10427035;28;20565;-71
2022/12/16 03:10:18;;;;;;;19.90;10.47;;;-3.90;99.90;;;;;;10428007;28;20668;-70
2022/12/16 03:15:25;;;;;;;20.87;10.23;;;-4.00;99.90;;;;;;10424449;28;20217;-70
2022/12/16 03:20:34;;;;;;;18.20;10.23;;;-4.00;99.90;;;;;;10429354;28;20227;-70
2022/12/16 03:25:40;;;;;;;16.33;9.07;;;-4.00;99.90;;;;;;10429090;28;20212;-70
2022/12/16 03:30:46;;;;;;;17.17;9.43;;;-4.10;99.90;;;;;;10425621;28;20220;-69
2022/12/16 03:35:52;;;;;;;16.13;9.40;;;-4.20;99.90;;;;;;10431363;28;20227;-70
2022/12/16 03:40:54;;;;;;;18.33;9.83;;;-4.20;99.90;;;;;;10436721;28;20962;-69
2022/12/16 03:46:01;;;;;;;19.63;10.60;;;-4.20;99.90;;;;;;10432655;28;20216;-70
2022/12/16 03:51:01;;;;;;;15.47;9.03;;;-4.20;99.90;;;;;;10433056;28;20221;-69
2022/12/16 03:56:02;;;;;;;21.00;10.67;;;-4.20;99.90;;;;;;10444381;28;20266;-70
2022/12/16 04:01:02;;;;;;;18.90;10.10;;;-4.10;99.90;;;;;;10437914;28;20270;-70
2022/12/16 04:06:04;;;;;;;18.47;9.73;;;-4.10;99.90;;;;;;10439032;28;20696;-69
2022/12/16 04:27:24;;;;;;;17.10;10.13;;;-4.10;99.90;;;;;;10432365;28;20683;-70
2022/12/16 04:32:25;;;;;;;16.50;9.50;;;-4.10;99.90;;;;;;10437494;28;20215;-70
